createdAt,value
2019-05-02T00:01:44.396Z,11.65
2019-05-02T00:04:19.977Z,11.61
2019-05-02T00:06:46.105Z,11.40
2019-05-02T00:09:14.815Z,11.29
2019-05-02T00:11:43.469Z,11.09
2019-05-02T00:14:12.757Z,11.01
2019-05-02T00:16:45.215Z,10.98
2019-05-02T00:19:14.056Z,10.91
2019-05-02T00:21:43.034Z,11.08
2019-05-02T00:24:13.819Z,11.19
2019-05-02T00:26:42.504Z,11.15
2019-05-02T00:29:11.215Z,11.19
2019-05-02T00:31:41.971Z,11.19
2019-05-02T00:34:10.192Z,11.11
2019-05-02T00:36:38.893Z,11.08
2019-05-02T00:39:09.531Z,10.99
2019-05-02T00:41:38.842Z,10.94
2019-05-02T00:44:10.993Z,10.87
2019-05-02T00:46:38.918Z,10.81
2019-05-02T00:49:07.835Z,10.82
2019-05-02T00:51:36.492Z,10.85
2019-05-02T00:54:05.162Z,10.79
2019-05-02T00:56:33.780Z,10.78
2019-05-02T00:59:07.084Z,10.61
2019-05-02T01:01:40.600Z,10.72
2019-05-02T01:04:15.849Z,10.84
2019-05-02T01:06:44.651Z,10.84
2019-05-02T01:09:14.890Z,10.82
2019-05-02T01:11:43.547Z,10.88
2019-05-02T01:14:12.155Z,10.93
2019-05-02T01:16:40.770Z,10.77
2019-05-02T01:19:12.142Z,10.78
2019-05-02T01:21:40.119Z,10.86
2019-05-02T01:24:08.983Z,10.99
2019-05-02T01:26:41.319Z,10.88
2019-05-02T01:29:15.111Z,10.74
2019-05-02T01:31:54.725Z,10.67
2019-05-02T01:34:36.870Z,10.67
2019-05-02T01:37:20.373Z,10.71
2019-05-02T01:39:44.099Z,10.87
2019-05-02T01:42:13.018Z,10.89
2019-05-02T01:44:41.640Z,10.87
2019-05-02T01:47:10.265Z,10.98
2019-05-02T01:49:38.869Z,11.08
2019-05-02T01:52:07.520Z,11.06
2019-05-02T01:54:36.123Z,10.97
2019-05-02T01:57:08.627Z,10.90
2019-05-02T01:59:35.351Z,10.77
2019-05-02T02:02:04.045Z,10.88
2019-05-02T02:04:32.762Z,10.84
2019-05-02T02:07:01.445Z,10.80
2019-05-02T02:09:30.168Z,10.85
2019-05-02T02:11:58.863Z,10.76
2019-05-02T02:14:27.472Z,10.98
2019-05-02T02:16:56.120Z,11.06
2019-05-02T02:19:40.684Z,10.98
2019-05-02T02:22:27.655Z,11.01
2019-05-02T02:25:13.814Z,10.88
2019-05-02T02:27:42.433Z,10.87
2019-05-02T02:30:17.892Z,10.88
2019-05-02T02:32:41.576Z,10.87
2019-05-02T02:35:12.578Z,10.82
2019-05-02T02:37:52.050Z,10.42
2019-05-02T02:40:11.043Z,10.45
2019-05-02T02:42:39.666Z,10.61
2019-05-02T02:45:20.461Z,10.62
2019-05-02T02:47:53.049Z,10.50
2019-05-02T02:50:19.537Z,10.45
2019-05-02T02:52:48.166Z,10.50
2019-05-02T02:55:22.191Z,10.46
2019-05-02T02:57:47.100Z,10.45
2019-05-02T03:00:16.204Z,10.40
2019-05-02T03:02:48.624Z,10.31
2019-05-02T03:05:18.489Z,10.30
2019-05-02T03:07:46.050Z,10.26
2019-05-02T03:10:14.745Z,10.16
2019-05-02T03:13:08.242Z,10.26
2019-05-02T03:15:41.828Z,9.94
2019-05-02T03:18:10.538Z,9.93
2019-05-02T03:20:40.570Z,9.93
2019-05-02T03:23:15.005Z,9.96
2019-05-02T03:25:50.344Z,10.04
2019-05-02T03:28:17.504Z,9.86
2019-05-02T03:30:40.878Z,9.77
2019-05-02T03:33:11.933Z,9.65
2019-05-02T03:35:44.206Z,9.56
2019-05-02T03:38:10.522Z,9.64
2019-05-02T03:40:41.405Z,9.40
2019-05-02T03:43:09.706Z,9.37
2019-05-02T03:45:40.985Z,9.36
2019-05-02T03:48:09.477Z,9.51
2019-05-02T03:50:38.676Z,9.50
2019-05-02T03:53:07.354Z,9.56
2019-05-02T03:55:36.238Z,9.30
2019-05-02T03:58:13.160Z,9.30
2019-05-02T04:00:35.503Z,9.30
2019-05-02T04:03:04.518Z,9.08
2019-05-02T04:05:33.709Z,8.85
2019-05-02T04:08:04.763Z,9.03
2019-05-02T04:11:21.628Z,8.97
2019-05-02T04:13:52.918Z,8.88
2019-05-02T04:16:22.242Z,8.97
2019-05-02T04:18:55.585Z,9.00
2019-05-02T04:21:24.822Z,9.04
2019-05-02T04:23:52.544Z,8.83
2019-05-02T04:26:21.252Z,8.82
2019-05-02T04:28:51.549Z,8.85
2019-05-02T04:31:24.926Z,8.90
2019-05-02T04:33:50.616Z,8.99
2019-05-02T04:36:19.320Z,8.92
2019-05-02T04:38:52.148Z,8.81
2019-05-02T04:41:28.303Z,8.90
2019-05-02T04:43:57.746Z,9.13
2019-05-02T04:46:27.256Z,9.22
2019-05-02T04:48:52.697Z,9.24
2019-05-02T04:51:20.701Z,9.12
2019-05-02T04:53:50.118Z,9.25
2019-05-02T04:56:19.042Z,8.92
2019-05-02T04:58:49.395Z,8.70
2019-05-02T05:01:21.034Z,8.91
2019-05-02T05:03:57.423Z,8.87
2019-05-02T05:06:19.165Z,8.87
2019-05-02T05:08:48.423Z,9.06
2019-05-02T05:11:20.882Z,9.18
2019-05-02T05:13:48.020Z,8.99
2019-05-02T05:16:18.576Z,8.96
2019-05-02T05:18:50.689Z,9.09
2019-05-02T05:21:18.225Z,9.18
2019-05-02T05:24:07.736Z,9.24
2019-05-02T05:26:40.952Z,9.43
2019-05-02T05:29:08.400Z,9.43
2019-05-02T05:31:38.249Z,9.65
2019-05-02T05:34:07.787Z,9.75
2019-05-02T05:36:37.580Z,9.81
2019-05-02T05:39:08.366Z,9.96
2019-05-02T05:41:37.797Z,10.02
2019-05-02T05:44:07.796Z,10.10
2019-05-02T05:46:40.952Z,10.16
2019-05-02T05:49:10.531Z,10.26
2019-05-02T05:51:37.496Z,10.33
2019-05-02T05:54:07.711Z,10.55
2019-05-02T05:56:39.782Z,10.70
2019-05-02T05:59:07.790Z,10.93
2019-05-02T06:01:38.446Z,11.01
2019-05-02T06:04:08.011Z,11.11
2019-05-02T06:06:37.781Z,11.24
2019-05-02T06:09:08.383Z,11.44
2019-05-02T06:11:37.019Z,11.65
2019-05-02T06:14:06.406Z,11.77
2019-05-02T06:16:35.434Z,11.84
2019-05-02T06:19:04.272Z,11.94
2019-05-02T06:21:32.941Z,12.11
2019-05-02T06:24:01.566Z,12.26
2019-05-02T06:26:30.189Z,12.38
2019-05-02T06:28:58.832Z,12.48
2019-05-02T06:31:27.513Z,12.60
2019-05-02T06:33:56.143Z,12.72
2019-05-02T06:36:24.764Z,12.85
2019-05-02T06:38:56.630Z,12.92
2019-05-02T06:41:23.811Z,13.09
2019-05-02T06:43:52.467Z,13.13
2019-05-02T06:46:21.932Z,13.15
2019-05-02T06:48:52.271Z,13.25
2019-05-02T06:51:21.279Z,13.38
2019-05-02T06:53:49.907Z,13.47
2019-05-02T06:56:18.521Z,13.54
2019-05-02T06:58:47.130Z,13.60
2019-05-02T07:01:16.122Z,13.54
2019-05-02T07:03:47.484Z,13.70
2019-05-02T07:06:16.504Z,13.90
2019-05-02T07:08:45.308Z,13.87
2019-05-02T07:11:13.891Z,13.64
2019-05-02T07:13:43.804Z,13.59
2019-05-02T07:16:36.866Z,13.46
2019-05-02T07:18:55.603Z,13.33
2019-05-02T07:21:24.228Z,12.99
2019-05-02T07:23:53.673Z,13.01
2019-05-02T07:26:23.488Z,13.04
2019-05-02T07:28:52.261Z,13.01
2019-05-02T07:31:20.913Z,12.72
2019-05-02T07:33:49.529Z,12.78
2019-05-02T07:36:18.164Z,12.92
2019-05-02T07:38:46.808Z,13.02
2019-05-02T07:41:15.528Z,12.95
2019-05-02T07:43:44.240Z,13.06
2019-05-02T07:46:16.149Z,13.01
2019-05-02T07:48:43.740Z,13.01
2019-05-02T07:51:12.374Z,13.27
2019-05-02T07:53:44.587Z,13.39
2019-05-02T07:56:12.432Z,13.43
2019-05-02T07:58:46.792Z,13.46
2019-05-02T08:01:13.454Z,13.17
2019-05-02T08:03:42.481Z,13.29
2019-05-02T08:06:11.128Z,13.59
2019-05-02T08:08:39.749Z,13.48
2019-05-02T08:11:08.477Z,13.43
2019-05-02T08:13:37.148Z,13.67
2019-05-02T08:16:05.821Z,13.84
2019-05-02T08:18:34.513Z,13.86
2019-05-02T08:21:03.142Z,13.95
2019-05-02T08:23:31.733Z,14.12
2019-05-02T08:26:00.362Z,14.00
2019-05-02T08:28:34.543Z,13.91
2019-05-02T08:31:03.165Z,14.14
2019-05-02T08:33:34.931Z,14.08
2019-05-02T08:36:02.134Z,14.06
2019-05-02T08:38:30.759Z,14.27
2019-05-02T08:40:59.376Z,14.29
2019-05-02T08:43:28.050Z,14.36
2019-05-02T08:45:56.698Z,14.37
2019-05-02T08:48:25.380Z,14.38
2019-05-02T08:50:54.924Z,14.63
2019-05-02T08:53:23.648Z,14.76
2019-05-02T08:55:52.283Z,14.40
2019-05-02T08:58:20.926Z,14.66
2019-05-02T09:00:49.617Z,14.50
2019-05-02T09:03:18.337Z,14.66
2019-05-02T09:05:47.482Z,14.90
2019-05-02T09:08:16.748Z,15.06
2019-05-02T09:10:45.698Z,15.05
2019-05-02T09:13:18.049Z,14.90
2019-05-02T09:15:49.745Z,14.87
2019-05-02T09:18:15.111Z,14.99
2019-05-02T09:20:47.065Z,15.06
2019-05-02T09:23:14.079Z,15.15
2019-05-02T09:25:43.117Z,15.19
2019-05-02T09:28:12.505Z,15.31
2019-05-02T09:30:41.893Z,15.27
2019-05-02T09:33:11.786Z,14.86
2019-05-02T09:35:42.212Z,15.15
2019-05-02T09:38:12.988Z,15.14
2019-05-02T09:40:42.639Z,15.23
2019-05-02T09:43:12.218Z,15.47
2019-05-02T09:45:43.205Z,15.71
2019-05-02T09:48:12.630Z,15.92
2019-05-02T09:50:42.177Z,15.92
2019-05-02T09:53:13.052Z,15.86
2019-05-02T09:55:49.113Z,15.86
2019-05-02T09:58:19.495Z,15.99
2019-05-02T10:01:01.870Z,16.02
2019-05-02T10:03:31.950Z,15.96
2019-05-02T10:06:02.930Z,15.95
2019-05-02T10:08:32.124Z,16.12
2019-05-02T10:11:02.795Z,16.29
2019-05-02T10:13:32.677Z,16.29
2019-05-02T10:16:02.030Z,16.55
2019-05-02T10:18:32.801Z,16.55
2019-05-02T10:21:03.036Z,16.48
2019-05-02T10:23:32.120Z,16.41
2019-05-02T10:26:02.895Z,16.48
2019-05-02T10:28:31.790Z,16.60
2019-05-02T10:31:02.243Z,16.66
2019-05-02T10:33:33.793Z,16.83
2019-05-02T10:36:02.687Z,16.82
2019-05-02T10:38:32.598Z,17.01
2019-05-02T10:41:02.662Z,17.13
2019-05-02T10:43:32.953Z,17.03
2019-05-02T10:46:07.757Z,17.21
2019-05-02T10:48:39.487Z,17.21
2019-05-02T10:51:34.378Z,17.27
2019-05-02T10:54:04.660Z,17.23
2019-05-02T10:56:33.358Z,17.26
2019-05-02T10:59:02.313Z,17.44
2019-05-02T11:01:34.264Z,17.53
2019-05-02T11:04:04.415Z,17.39
2019-05-02T11:06:37.208Z,17.39
2019-05-02T11:09:06.184Z,17.62
2019-05-02T11:11:34.000Z,17.55
2019-05-02T11:14:14.883Z,17.55
2019-05-02T11:17:01.765Z,17.83
2019-05-02T11:19:36.715Z,17.78
2019-05-02T11:22:05.436Z,17.76
2019-05-02T11:24:34.056Z,18.20
2019-05-02T11:27:02.686Z,18.20
2019-05-02T11:29:32.234Z,18.76
2019-05-02T11:32:02.752Z,18.76
2019-05-02T11:34:32.666Z,18.76
2019-05-02T11:37:01.836Z,18.60
2019-05-02T11:39:40.686Z,18.80
2019-05-02T11:42:02.093Z,18.80
2019-05-02T11:44:32.651Z,18.75
2019-05-02T11:47:02.087Z,19.26
2019-05-02T11:49:31.961Z,19.26
2019-05-02T11:52:04.530Z,19.19
2019-05-02T11:54:39.288Z,19.37
2019-05-02T11:57:07.044Z,19.37
2019-05-02T11:59:48.623Z,19.09
2019-05-02T12:02:58.068Z,19.32
2019-05-02T12:05:35.549Z,19.32
2019-05-02T12:08:07.754Z,19.17
2019-05-02T12:10:36.677Z,19.17
2019-05-02T12:13:15.919Z,19.57
2019-05-02T12:15:44.524Z,19.57
2019-05-02T12:18:15.296Z,19.44
2019-05-02T12:20:44.588Z,19.63
2019-05-02T12:23:18.692Z,19.83
2019-05-02T12:25:49.580Z,19.83
2019-05-02T12:28:20.084Z,19.54
2019-05-02T12:30:49.373Z,19.28
2019-05-02T12:33:22.362Z,19.38
2019-05-02T12:35:55.806Z,19.09
2019-05-02T12:38:34.910Z,19.09
2019-05-02T12:41:04.193Z,19.03
2019-05-02T12:43:41.626Z,18.95
2019-05-02T12:46:11.877Z,18.95
2019-05-02T12:48:43.084Z,19.15
2019-05-02T12:51:18.149Z,18.89
2019-05-02T12:53:52.976Z,19.04
2019-05-02T12:56:24.704Z,19.23
2019-05-02T12:58:54.619Z,19.23
2019-05-02T13:05:08.475Z,19.43
2019-05-02T13:07:54.247Z,19.03
2019-05-02T13:10:32.886Z,19.49
2019-05-02T13:13:02.826Z,19.69
2019-05-02T13:15:39.497Z,19.73
2019-05-02T13:18:09.146Z,19.73
2019-05-02T13:20:42.598Z,19.49
2019-05-02T13:23:34.087Z,19.57
2019-05-02T13:26:10.119Z,19.59
2019-05-02T13:28:33.935Z,19.62
2019-05-02T13:31:22.427Z,19.44
2019-05-02T13:33:58.829Z,19.73
2019-05-02T13:36:45.826Z,20.01
2019-05-02T13:39:42.349Z,20.33
2019-05-02T13:42:12.528Z,20.28
2019-05-02T13:44:49.048Z,20.21
2019-05-02T13:47:21.857Z,20.16
2019-05-02T13:49:59.100Z,20.02
2019-05-02T13:52:29.031Z,20.02
2019-05-02T13:55:01.798Z,19.93
2019-05-02T13:57:35.018Z,19.93
2019-05-02T14:00:04.718Z,19.79
2019-05-02T14:02:37.778Z,19.85
2019-05-02T14:05:07.907Z,20.09
2019-05-02T14:07:36.637Z,20.09
2019-05-02T14:10:13.167Z,20.19
2019-05-02T14:12:47.240Z,20.16
2019-05-02T14:15:17.156Z,19.95
2019-05-02T14:17:45.770Z,20.09
2019-05-02T14:20:16.105Z,19.89
2019-05-02T14:22:44.738Z,19.89
2019-05-02T14:25:13.505Z,19.89
2019-05-02T14:27:42.325Z,19.87
2019-05-02T14:30:12.196Z,20.20
2019-05-02T14:32:42.490Z,20.15
2019-05-02T14:35:32.454Z,20.25
2019-05-02T14:38:12.849Z,20.35
2019-05-02T14:41:03.135Z,20.45
2019-05-02T14:43:55.506Z,20.39
2019-05-02T14:46:34.037Z,20.33
2019-05-02T14:48:56.497Z,20.19
2019-05-02T14:51:27.585Z,20.18
2019-05-02T14:53:57.399Z,20.19
2019-05-02T14:56:49.299Z,20.19
2019-05-02T14:59:19.923Z,20.10
2019-05-02T15:01:57.955Z,19.64
2019-05-02T15:04:24.258Z,19.64
2019-05-02T15:06:52.968Z,20.04
2019-05-02T15:09:26.582Z,20.25
2019-05-02T15:12:02.915Z,20.25
2019-05-02T15:14:33.302Z,20.29
2019-05-02T15:17:02.712Z,19.95
2019-05-02T15:19:33.009Z,19.88
2019-05-02T15:22:02.260Z,19.83
2019-05-02T15:24:33.409Z,19.54
2019-05-02T15:27:03.662Z,19.53
2019-05-02T15:29:32.313Z,19.67
2019-05-02T15:32:12.976Z,19.67
2019-05-02T15:34:59.507Z,19.42
2019-05-02T15:37:28.718Z,19.41
2019-05-02T15:42:27.795Z,19.51
2019-05-02T15:44:57.056Z,19.57
2019-05-02T15:47:26.755Z,19.53
2019-05-02T15:49:55.402Z,19.52
2019-05-02T15:52:28.455Z,19.55
2019-05-02T15:55:02.065Z,19.49
2019-05-02T15:57:27.547Z,19.61
2019-05-02T15:59:56.240Z,19.49
2019-05-02T16:02:26.759Z,19.54
2019-05-02T16:04:57.001Z,19.33
2019-05-02T16:07:25.794Z,19.30
2019-05-02T16:09:59.415Z,19.37
2019-05-02T16:12:27.197Z,19.43
2019-05-02T16:14:55.123Z,19.26
2019-05-02T16:17:27.730Z,19.26
2019-05-02T16:20:06.951Z,19.14
2019-05-02T16:22:29.919Z,19.06
2019-05-02T16:24:58.625Z,19.01
2019-05-02T16:27:46.305Z,19.05
2019-05-02T16:30:17.045Z,19.05
2019-05-02T16:32:49.759Z,18.63
2019-05-02T16:35:24.987Z,18.79
2019-05-02T16:37:56.055Z,18.79
2019-05-02T16:40:29.617Z,18.73
2019-05-02T16:42:59.230Z,18.65
2019-05-02T16:45:28.809Z,18.65
2019-05-02T16:48:18.055Z,18.53
2019-05-02T16:50:49.443Z,17.97
2019-05-02T16:53:22.697Z,18.06
2019-05-02T16:55:58.484Z,18.06
2019-05-02T16:58:33.366Z,18.35
2019-05-02T17:01:01.811Z,18.35
2019-05-02T17:03:32.102Z,18.72
2019-05-02T17:06:02.382Z,19.11
2019-05-02T17:09:03.713Z,19.02
2019-05-02T17:11:42.001Z,19.04
2019-05-02T17:14:13.408Z,19.04
2019-05-02T17:16:52.371Z,18.97
2019-05-02T17:19:21.534Z,18.89
2019-05-02T17:21:53.981Z,18.77
2019-05-02T17:24:26.063Z,18.77
2019-05-02T17:27:00.097Z,18.58
2019-05-02T17:29:31.735Z,18.58
2019-05-02T17:32:04.783Z,18.42
2019-05-02T17:34:35.026Z,18.46
2019-05-02T17:37:11.205Z,18.46
2019-05-02T17:39:42.671Z,18.32
2019-05-02T17:42:12.467Z,18.36
2019-05-02T17:44:44.041Z,18.17
2019-05-02T17:47:14.808Z,18.23
2019-05-02T17:49:44.161Z,18.13
2019-05-02T17:52:26.725Z,18.13
2019-05-02T17:54:57.364Z,17.89
2019-05-02T17:57:33.487Z,17.83
2019-05-02T18:00:00.458Z,17.83
2019-05-02T18:02:32.007Z,17.81
2019-05-02T18:05:02.758Z,17.76
2019-05-02T18:07:36.379Z,17.71
2019-05-02T18:10:14.355Z,17.71
2019-05-02T18:12:47.256Z,17.59
2019-05-02T18:15:19.711Z,17.59
2019-05-02T18:17:49.675Z,17.47
2019-05-02T18:20:25.436Z,17.56
2019-05-02T18:22:56.231Z,17.38
2019-05-02T18:25:29.146Z,17.38
2019-05-02T18:28:22.302Z,17.33
2019-05-02T18:30:52.451Z,17.28
2019-05-02T18:33:23.570Z,17.28
2019-05-02T18:35:53.307Z,17.06
2019-05-02T18:38:22.909Z,17.04
2019-05-02T18:40:55.390Z,17.13
2019-05-02T18:43:36.118Z,17.08
2019-05-02T18:46:07.760Z,17.07
2019-05-02T18:48:42.203Z,16.89
2019-05-02T18:51:17.158Z,16.89
2019-05-02T18:53:43.598Z,16.87
2019-05-02T18:56:17.670Z,16.83
2019-05-02T18:58:48.120Z,16.72
2019-05-02T19:01:20.947Z,16.73
2019-05-02T19:03:56.104Z,16.69
2019-05-02T19:06:32.409Z,16.65
2019-05-02T19:09:02.662Z,16.58
2019-05-02T19:11:35.302Z,16.59
2019-05-02T19:14:07.721Z,16.59
2019-05-02T19:16:39.512Z,16.34
2019-05-02T19:19:17.053Z,16.35
2019-05-02T19:21:47.512Z,16.02
2019-05-02T19:24:20.234Z,16.11
2019-05-02T19:26:56.356Z,15.99
2019-05-02T19:29:35.555Z,15.82
2019-05-02T19:32:12.241Z,15.46
2019-05-02T19:34:46.565Z,15.45
2019-05-02T19:37:17.631Z,15.32
2019-05-02T19:39:48.917Z,15.34
2019-05-02T19:42:22.652Z,14.96
2019-05-02T19:44:52.637Z,14.95
2019-05-02T19:47:26.486Z,14.85
2019-05-02T19:49:55.853Z,14.84
2019-05-02T19:52:28.574Z,14.83
2019-05-02T19:55:00.087Z,14.76
2019-05-02T19:57:28.958Z,14.98
2019-05-02T20:00:02.717Z,14.84
2019-05-02T20:02:37.425Z,14.80
2019-05-02T20:05:07.329Z,14.58
2019-05-02T20:07:40.029Z,14.63
2019-05-02T20:10:12.294Z,14.44
2019-05-02T20:12:48.102Z,14.43
2019-05-02T20:15:22.823Z,14.33
2019-05-02T20:18:00.377Z,14.40
2019-05-02T20:21:23.545Z,14.37
2019-05-02T20:23:45.776Z,14.26
2019-05-02T20:26:16.945Z,14.29
2019-05-02T20:28:47.065Z,14.33
2019-05-02T20:31:21.688Z,14.21
2019-05-02T20:33:57.101Z,14.15
2019-05-02T20:36:32.138Z,14.17
2019-05-02T20:39:04.606Z,14.14
2019-05-02T20:41:39.261Z,13.86
2019-05-02T20:44:12.181Z,13.94
2019-05-02T20:46:44.507Z,14.11
2019-05-02T20:49:21.480Z,13.94
2019-05-02T20:51:52.797Z,13.77
2019-05-02T20:54:22.267Z,13.84
2019-05-02T20:57:06.456Z,13.95
2019-05-02T20:59:37.818Z,13.79
2019-05-02T21:02:12.063Z,13.56
2019-05-02T21:04:42.555Z,13.53
2019-05-02T21:07:37.465Z,13.67
2019-05-02T21:10:12.988Z,13.70
2019-05-02T21:12:42.640Z,13.63
2019-05-02T21:15:12.783Z,13.60
2019-05-02T21:17:45.787Z,13.50
2019-05-02T21:20:14.837Z,13.40
2019-05-02T21:22:45.171Z,13.19
2019-05-02T21:26:04.786Z,13.20
2019-05-02T21:28:35.753Z,13.20
2019-05-02T21:31:12.597Z,13.14
2019-05-02T21:33:42.745Z,13.12
2019-05-02T21:36:15.872Z,13.15
2019-05-02T21:42:34.914Z,13.05
2019-05-02T21:45:08.269Z,13.07
2019-05-02T21:47:50.410Z,12.98
2019-05-02T21:50:46.098Z,13.11
2019-05-02T21:53:54.977Z,13.14
2019-05-02T21:56:26.290Z,13.01
2019-05-02T21:59:12.139Z,13.14
2019-05-02T22:01:52.960Z,13.02
2019-05-02T22:04:26.947Z,13.11
2019-05-02T22:06:56.484Z,13.23
2019-05-02T22:09:25.940Z,13.18
2019-05-02T22:11:54.731Z,13.04
2019-05-02T22:14:24.082Z,13.06
2019-05-02T22:16:57.341Z,13.01
2019-05-02T22:19:28.923Z,12.89
2019-05-02T22:21:58.850Z,12.96
2019-05-02T22:24:31.639Z,12.77
2019-05-02T22:27:03.808Z,12.87
2019-05-02T22:29:36.918Z,12.90
2019-05-02T22:32:05.582Z,12.92
2019-05-02T22:34:34.219Z,12.94
2019-05-02T22:37:04.805Z,12.96
2019-05-02T22:39:50.712Z,12.84
2019-05-02T22:42:19.323Z,12.90
2019-05-02T22:44:47.945Z,12.93
2019-05-02T22:47:16.634Z,12.83
2019-05-02T22:49:45.332Z,12.88
2019-05-02T22:52:14.355Z,13.00
2019-05-02T22:54:43.251Z,13.00
2019-05-02T22:57:14.299Z,12.92
2019-05-02T22:59:42.367Z,12.85
2019-05-02T23:02:12.798Z,12.96
2019-05-02T23:04:41.810Z,12.91
2019-05-02T23:07:12.524Z,12.90
2019-05-02T23:09:43.406Z,13.02
2019-05-02T23:12:13.054Z,12.91
2019-05-02T23:14:41.894Z,12.89
2019-05-02T23:17:12.534Z,12.96
2019-05-02T23:19:42.346Z,12.86
2019-05-02T23:22:12.734Z,12.86
2019-05-02T23:24:49.772Z,12.80
2019-05-02T23:27:42.398Z,12.85
2019-05-02T23:30:14.145Z,12.84
2019-05-02T23:32:42.954Z,12.88
2019-05-02T23:35:12.167Z,12.78
2019-05-02T23:37:42.228Z,12.70
2019-05-02T23:40:12.701Z,12.80
2019-05-02T23:42:41.789Z,12.74
2019-05-02T23:45:12.140Z,12.77
2019-05-02T23:47:42.151Z,12.71
2019-05-02T23:50:12.169Z,12.67
2019-05-02T23:52:40.836Z,12.74
2019-05-02T23:55:09.613Z,12.81
2019-05-02T23:57:38.245Z,12.85
